createdAt,value
2023-01-13T00:02:07.182Z,5.90
2023-01-13T00:04:34.095Z,6.40
2023-01-13T00:07:00.859Z,6.20
2023-01-13T00:09:28.985Z,5.80
2023-01-13T00:11:56.340Z,5.80
2023-01-13T00:14:23.421Z,6.10
2023-01-13T00:16:50.294Z,5.90
2023-01-13T00:19:18.358Z,6.00
2023-01-13T00:21:45.183Z,6.00
2023-01-13T00:24:13.974Z,6.00
2023-01-13T00:26:40.801Z,7.20
2023-01-13T00:29:07.753Z,6.00
2023-01-13T00:31:34.676Z,6.10
2023-01-13T00:38:58.394Z,6.10
2023-01-13T00:41:26.583Z,6.10
2023-01-13T00:43:53.592Z,6.20
2023-01-13T00:46:28.993Z,6.00
2023-01-13T00:48:55.898Z,6.10
2023-01-13T00:51:28.983Z,6.10
2023-01-13T00:53:55.833Z,6.10
2023-01-13T00:56:38.993Z,6.40
2023-01-13T00:59:07.768Z,5.90
2023-01-13T01:01:35.066Z,6.00
2023-01-13T01:04:02.020Z,5.90
2023-01-13T01:08:58.361Z,6.00
2023-01-13T01:11:27.968Z,6.00
2023-01-13T01:14:03.982Z,5.90
2023-01-13T01:16:32.556Z,5.90
2023-01-13T01:19:06.970Z,6.30
2023-01-13T01:21:34.351Z,5.90
2023-01-13T01:24:02.715Z,5.70
2023-01-13T01:26:30.724Z,5.80
2023-01-13T01:28:57.896Z,5.90
2023-01-13T01:31:27.700Z,5.80
2023-01-13T01:33:55.378Z,5.70
2023-01-13T01:36:23.650Z,5.60
2023-01-13T01:38:50.692Z,6.50
2023-01-13T01:41:23.661Z,5.70
2023-01-13T01:44:13.902Z,5.80
2023-01-13T01:46:43.506Z,5.70
2023-01-13T01:49:20.106Z,5.70
2023-01-13T01:51:59.542Z,5.70
2023-01-13T01:54:32.273Z,5.60
2023-01-13T01:56:59.553Z,5.60
2023-01-13T01:59:34.972Z,5.60
2023-01-13T02:02:06.148Z,5.60
2023-01-13T02:04:40.577Z,5.60
2023-01-13T02:09:37.007Z,5.60
2023-01-13T02:12:22.570Z,5.60
2023-01-13T02:14:49.499Z,5.60
2023-01-13T02:17:42.668Z,5.70
2023-01-13T02:20:31.193Z,5.70
2023-01-13T02:23:53.993Z,5.60
2023-01-13T02:26:32.454Z,5.80
2023-01-13T02:29:52.061Z,5.70
2023-01-13T02:33:10.931Z,5.70
2023-01-13T02:35:51.454Z,5.50
2023-01-13T02:38:25.144Z,5.70
2023-01-13T02:41:19.849Z,5.70
2023-01-13T02:44:08.424Z,6.70
2023-01-13T02:46:49.585Z,5.70
2023-01-13T02:49:24.726Z,5.60
2023-01-13T02:51:54.937Z,5.70
2023-01-13T02:54:25.771Z,5.70
2023-01-13T02:56:55.483Z,5.80
2023-01-13T02:59:26.257Z,5.10
2023-01-13T03:01:56.129Z,6.30
2023-01-13T03:04:52.834Z,5.60
2023-01-13T03:07:43.904Z,5.30
2023-01-13T03:10:22.867Z,5.60
2023-01-13T03:13:02.031Z,5.60
2023-01-13T03:15:57.155Z,5.60
2023-01-13T03:18:55.036Z,5.50
2023-01-13T03:21:39.889Z,5.50
2023-01-13T03:24:36.142Z,5.60
2023-01-13T03:27:18.760Z,5.50
2023-01-13T03:32:20.271Z,5.50
2023-01-13T03:34:55.468Z,5.60
2023-01-13T03:37:27.361Z,5.70
2023-01-13T03:40:27.796Z,5.60
2023-01-13T03:43:18.671Z,5.90
2023-01-13T03:45:51.684Z,5.70
2023-01-13T03:48:22.192Z,5.70
2023-01-13T03:50:55.033Z,5.70
2023-01-13T03:53:30.799Z,5.80
2023-01-13T03:56:12.638Z,5.70
2023-01-13T03:58:43.506Z,5.80
2023-01-13T04:01:12.924Z,5.80
2023-01-13T04:03:57.718Z,5.80
2023-01-13T04:06:41.831Z,5.80
2023-01-13T04:09:18.875Z,5.80
2023-01-13T04:11:55.695Z,5.90
2023-01-13T04:14:24.622Z,6.50
2023-01-13T04:16:51.477Z,6.00
2023-01-13T04:19:18.400Z,6.00
2023-01-13T04:24:12.531Z,6.10
2023-01-13T04:26:39.325Z,6.20
2023-01-13T04:29:06.233Z,6.30
2023-01-13T04:31:33.125Z,6.20
2023-01-13T04:34:00.030Z,6.20
2023-01-13T04:41:24.331Z,6.30
2023-01-13T04:46:18.395Z,6.40
2023-01-13T04:48:45.208Z,6.30
2023-01-13T04:51:12.105Z,6.30
2023-01-13T04:53:38.880Z,6.30
2023-01-13T04:56:05.978Z,6.40
2023-01-13T04:58:32.824Z,6.30
2023-01-13T05:03:27.160Z,6.00
2023-01-13T05:05:53.965Z,6.40
2023-01-13T05:10:48.166Z,6.40
2023-01-13T05:13:44.356Z,6.20
2023-01-13T05:16:31.061Z,6.30
2023-01-13T05:18:57.953Z,6.30
2023-01-13T05:21:43.655Z,6.30
2023-01-13T05:24:29.415Z,6.20
2023-01-13T05:26:56.492Z,6.10
2023-01-13T05:29:23.341Z,6.10
2023-01-13T05:31:50.179Z,6.30
2023-01-13T05:36:44.456Z,6.00
2023-01-13T05:41:57.405Z,6.10
2023-01-13T05:44:24.200Z,5.90
2023-01-13T05:49:18.595Z,5.90
2023-01-13T05:51:45.609Z,5.90
2023-01-13T05:54:12.472Z,6.40
2023-01-13T05:56:39.255Z,5.70
2023-01-13T05:59:07.171Z,5.70
2023-01-13T06:04:01.298Z,5.80
2023-01-13T06:08:55.262Z,5.90
2023-01-13T06:11:22.253Z,5.70
2023-01-13T06:13:49.085Z,5.90
2023-01-13T06:16:15.924Z,5.80
2023-01-13T06:18:42.811Z,5.80
2023-01-13T06:21:09.678Z,5.80
2023-01-13T06:23:38.655Z,6.00
2023-01-13T06:26:16.463Z,6.00
2023-01-13T06:28:43.333Z,6.10
2023-01-13T06:31:11.030Z,6.20
2023-01-13T06:33:43.158Z,6.40
2023-01-13T06:36:16.286Z,6.20
2023-01-13T06:38:46.508Z,6.30
2023-01-13T06:41:13.667Z,6.50
2023-01-13T06:43:40.769Z,6.20
2023-01-13T06:48:35.677Z,6.30
2023-01-13T06:51:03.906Z,6.40
2023-01-13T06:53:31.202Z,6.30
2023-01-13T06:58:25.358Z,6.30
2023-01-13T07:00:52.303Z,6.20
2023-01-13T07:03:20.078Z,6.50
2023-01-13T07:05:56.184Z,6.50
2023-01-13T07:08:24.359Z,6.50
2023-01-13T07:10:51.626Z,6.60
2023-01-13T07:13:37.825Z,6.60
2023-01-13T07:16:06.931Z,6.60
2023-01-13T07:18:34.785Z,6.60
2023-01-13T07:21:04.976Z,7.10
2023-01-13T07:23:34.439Z,6.60
2023-01-13T07:28:30.234Z,6.50
2023-01-13T07:30:57.392Z,6.70
2023-01-13T07:33:24.498Z,6.60
2023-01-13T07:35:59.151Z,6.40
2023-01-13T07:38:26.484Z,7.10
2023-01-13T07:40:53.658Z,6.40
2023-01-13T07:43:40.931Z,6.40
2023-01-13T07:48:35.567Z,6.40
2023-01-13T07:51:07.734Z,6.50
2023-01-13T07:53:35.380Z,6.30
2023-01-13T07:56:04.294Z,6.20
2023-01-13T07:58:31.139Z,7.60
2023-01-13T08:00:58.317Z,6.30
2023-01-13T08:03:26.351Z,6.30
2023-01-13T08:05:53.312Z,6.30
2023-01-13T08:08:20.242Z,6.40
2023-01-13T08:13:22.101Z,6.40
2023-01-13T08:15:51.570Z,6.40
2023-01-13T08:18:22.011Z,6.20
2023-01-13T08:20:52.256Z,7.60
2023-01-13T08:23:20.927Z,6.80
2023-01-13T08:25:48.414Z,6.90
2023-01-13T08:28:16.450Z,6.40
2023-01-13T08:30:43.692Z,6.30
2023-01-13T08:33:12.276Z,5.70
2023-01-13T08:35:40.920Z,6.70
2023-01-13T08:38:09.028Z,6.40
2023-01-13T08:43:03.405Z,6.40
2023-01-13T08:45:30.284Z,6.30
2023-01-13T08:47:57.266Z,6.30
2023-01-13T08:50:24.119Z,6.60
2023-01-13T08:55:18.269Z,6.40
2023-01-13T08:57:45.122Z,6.00
2023-01-13T09:00:13.208Z,6.40
2023-01-13T09:02:40.314Z,7.30
2023-01-13T09:05:08.358Z,6.80
2023-01-13T09:07:37.208Z,6.30
2023-01-13T09:10:05.658Z,6.30
2023-01-13T09:12:51.125Z,7.50
2023-01-13T09:15:18.647Z,6.50
2023-01-13T09:17:45.868Z,6.40
2023-01-13T09:20:13.189Z,5.90
2023-01-13T09:22:40.785Z,6.00
2023-01-13T09:27:35.235Z,6.40
2023-01-13T09:30:02.236Z,6.40
2023-01-13T09:32:29.060Z,6.20
2023-01-13T09:35:02.028Z,6.20
2023-01-13T09:37:34.732Z,6.60
2023-01-13T09:40:03.518Z,6.40
2023-01-13T09:43:17.262Z,6.40
2023-01-13T09:46:43.353Z,6.30
2023-01-13T09:49:24.103Z,6.40
2023-01-13T09:52:12.139Z,6.40
2023-01-13T09:54:45.829Z,6.40
2023-01-13T09:57:15.449Z,6.30
2023-01-13T09:59:42.829Z,6.40
2023-01-13T10:02:39.850Z,7.00
2023-01-13T10:05:12.443Z,6.30
2023-01-13T10:07:48.146Z,6.20
2023-01-13T10:10:41.916Z,6.00
2023-01-13T10:13:22.144Z,5.90
2023-01-13T10:16:04.505Z,5.90
2023-01-13T10:19:03.516Z,5.90
2023-01-13T10:21:53.905Z,6.40
2023-01-13T10:24:43.199Z,5.90
2023-01-13T10:27:32.104Z,5.90
2023-01-13T10:29:58.923Z,6.20
2023-01-13T10:34:57.309Z,5.80
2023-01-13T10:37:28.764Z,5.90
2023-01-13T10:39:57.450Z,5.60
2023-01-13T10:42:25.494Z,6.10
2023-01-13T10:44:57.487Z,6.00
2023-01-13T10:47:36.238Z,6.10
2023-01-13T10:50:21.209Z,6.20
2023-01-13T10:53:00.770Z,6.20
2023-01-13T10:55:37.283Z,6.10
2023-01-13T10:58:24.813Z,6.10
2023-01-13T11:01:04.056Z,6.20
2023-01-13T11:03:43.024Z,6.30
2023-01-13T11:06:19.022Z,6.10
2023-01-13T11:08:49.222Z,6.20
2023-01-13T11:11:42.327Z,6.10
2023-01-13T11:14:36.445Z,6.00
2023-01-13T11:17:35.553Z,6.20
2023-01-13T11:20:11.593Z,6.00
2023-01-13T11:22:46.569Z,6.30
2023-01-13T11:25:43.079Z,6.10
2023-01-13T11:28:12.965Z,6.00
2023-01-13T11:30:52.425Z,6.90
2023-01-13T11:33:36.777Z,6.70
2023-01-13T11:36:10.500Z,6.10
2023-01-13T11:39:01.402Z,6.20
2023-01-13T11:42:07.473Z,6.10
2023-01-13T11:44:46.512Z,6.30
2023-01-13T11:47:14.423Z,6.10
2023-01-13T11:49:41.840Z,6.20
2023-01-13T11:52:28.113Z,6.10
2023-01-13T11:55:06.066Z,6.90
2023-01-13T11:58:01.019Z,5.70
2023-01-13T12:00:36.939Z,6.30
2023-01-13T12:03:31.177Z,6.20
2023-01-13T12:06:14.552Z,6.30
2023-01-13T12:08:41.463Z,6.20
2023-01-13T12:11:22.425Z,6.40
2023-01-13T12:14:06.981Z,6.20
2023-01-13T12:16:33.981Z,6.30
2023-01-13T12:19:24.535Z,6.20
2023-01-13T12:21:54.524Z,6.20
2023-01-13T12:24:53.009Z,6.20
2023-01-13T12:27:43.197Z,6.30
2023-01-13T12:30:42.549Z,6.90
2023-01-13T12:33:32.718Z,6.20
2023-01-13T12:36:20.618Z,6.40
2023-01-13T12:39:13.098Z,6.40
2023-01-13T12:42:35.976Z,6.20
2023-01-13T12:45:11.700Z,6.30
2023-01-13T12:47:48.637Z,6.10
2023-01-13T12:50:27.544Z,5.80
2023-01-13T12:52:57.380Z,6.30
2023-01-13T12:55:35.112Z,6.30
2023-01-13T12:58:10.962Z,6.20
2023-01-13T13:00:56.921Z,6.00
2023-01-13T13:03:29.636Z,6.00
2023-01-13T13:06:20.088Z,5.80
2023-01-13T13:11:32.787Z,6.30
2023-01-13T13:14:01.344Z,5.90
2023-01-13T13:16:29.487Z,7.00
2023-01-13T13:19:18.496Z,6.20
2023-01-13T13:22:13.541Z,6.20
2023-01-13T13:24:43.020Z,6.20
2023-01-13T13:27:24.964Z,6.00
2023-01-13T13:29:54.816Z,6.00
2023-01-13T13:32:27.817Z,6.90
2023-01-13T13:35:13.811Z,6.10
2023-01-13T13:38:41.179Z,5.90
2023-01-13T13:41:42.049Z,5.90
2023-01-13T13:44:50.496Z,6.20
2023-01-13T13:47:17.763Z,5.70
2023-01-13T13:49:52.789Z,5.80
2023-01-13T13:52:42.551Z,6.70
2023-01-13T13:55:18.729Z,5.40
2023-01-13T13:57:54.061Z,5.50
2023-01-13T14:00:34.480Z,5.40
2023-01-13T14:03:05.771Z,5.40
2023-01-13T14:05:37.206Z,6.50
2023-01-13T14:08:18.140Z,5.40
2023-01-13T14:10:46.325Z,5.70
2023-01-13T14:13:14.747Z,5.60
2023-01-13T14:15:41.826Z,5.70
2023-01-13T14:18:14.689Z,5.30
2023-01-13T14:20:42.144Z,5.50
2023-01-13T14:23:17.879Z,5.70
2023-01-13T14:25:50.110Z,5.30
2023-01-13T14:28:28.406Z,5.50
2023-01-13T14:30:56.980Z,5.60
2023-01-13T14:33:39.400Z,5.50
2023-01-13T14:36:25.278Z,5.60
2023-01-13T14:39:03.912Z,5.30
2023-01-13T14:41:38.161Z,5.30
2023-01-13T14:44:26.782Z,5.50
2023-01-13T14:46:56.569Z,5.20
2023-01-13T14:49:39.441Z,5.10
2023-01-13T14:52:22.927Z,5.20
2023-01-13T14:55:11.728Z,5.40
2023-01-13T14:57:41.799Z,5.40
2023-01-13T15:00:14.979Z,5.60
2023-01-13T15:02:53.758Z,5.40
2023-01-13T15:05:20.551Z,5.50
2023-01-13T15:08:17.923Z,5.10
2023-01-13T15:11:00.048Z,5.40
2023-01-13T15:13:44.970Z,5.60
2023-01-13T15:16:25.488Z,5.50
2023-01-13T15:18:54.637Z,5.40
2023-01-13T15:21:23.042Z,5.80
2023-01-13T15:23:49.962Z,5.80
2023-01-13T15:26:21.756Z,5.70
2023-01-13T15:28:49.799Z,5.60
2023-01-13T15:31:16.678Z,5.50
2023-01-13T15:33:43.567Z,5.80
2023-01-13T15:36:28.611Z,5.50
2023-01-13T15:38:56.495Z,5.30
2023-01-13T15:41:44.500Z,5.50
2023-01-13T15:44:30.960Z,5.40
2023-01-13T15:47:00.453Z,5.70
2023-01-13T15:49:35.031Z,5.70
2023-01-13T15:52:04.433Z,5.50
2023-01-13T15:54:31.468Z,5.60
2023-01-13T15:56:58.741Z,5.70
2023-01-13T15:59:27.970Z,6.60
2023-01-13T16:01:54.833Z,5.70
2023-01-13T16:04:21.621Z,5.10
2023-01-13T16:06:48.415Z,5.30
2023-01-13T16:09:16.855Z,5.40
2023-01-13T16:11:45.015Z,5.40
2023-01-13T16:14:11.851Z,5.20
2023-01-13T16:16:38.837Z,5.40
2023-01-13T16:19:05.811Z,5.00
2023-01-13T16:21:32.618Z,5.50
2023-01-13T16:23:59.505Z,5.20
2023-01-13T16:26:29.943Z,5.30
2023-01-13T16:28:57.913Z,5.50
2023-01-13T16:31:32.977Z,5.30
2023-01-13T16:34:02.374Z,5.50
2023-01-13T16:36:31.515Z,5.60
2023-01-13T16:38:58.317Z,5.50
2023-01-13T16:41:25.443Z,5.40
2023-01-13T16:43:52.711Z,5.30
2023-01-13T16:46:29.391Z,5.30
2023-01-13T16:49:01.180Z,5.50
2023-01-13T16:51:28.320Z,6.70
2023-01-13T16:53:55.260Z,5.40
2023-01-13T16:56:30.676Z,5.70
2023-01-13T16:59:05.640Z,6.60
2023-01-13T17:01:34.303Z,5.50
2023-01-13T17:04:01.274Z,5.90
2023-01-13T17:06:30.817Z,5.90
2023-01-13T17:09:02.781Z,5.90
2023-01-13T17:11:29.871Z,5.80
2023-01-13T17:13:56.792Z,5.60
2023-01-13T17:16:26.043Z,5.70
2023-01-13T17:18:53.757Z,5.70
2023-01-13T17:21:20.660Z,5.70
2023-01-13T17:23:47.978Z,6.00
2023-01-13T17:26:37.360Z,5.90
2023-01-13T17:29:06.200Z,5.90
2023-01-13T17:31:35.096Z,5.80
2023-01-13T17:34:02.939Z,5.90
2023-01-13T17:36:30.266Z,6.00
2023-01-13T17:38:58.795Z,6.10
2023-01-13T17:41:26.350Z,6.10
2023-01-13T17:43:53.810Z,6.50
2023-01-13T17:46:22.816Z,6.00
2023-01-13T17:48:51.107Z,6.10
2023-01-13T17:51:19.629Z,6.20
2023-01-13T17:56:15.523Z,6.00
2023-01-13T17:58:45.181Z,6.00
2023-01-13T18:01:18.312Z,6.10
2023-01-13T18:03:45.679Z,6.40
2023-01-13T18:06:21.953Z,5.90
2023-01-13T18:08:49.758Z,6.30
2023-01-13T18:11:23.698Z,6.30
2023-01-13T18:13:55.385Z,6.20
2023-01-13T18:18:52.482Z,6.40
2023-01-13T18:21:44.087Z,6.30
2023-01-13T18:24:32.042Z,6.30
2023-01-13T18:29:46.210Z,6.30
2023-01-13T18:37:10.695Z,6.60
2023-01-13T18:39:37.513Z,6.30
2023-01-13T18:42:25.081Z,6.30
2023-01-13T18:44:53.236Z,6.60
2023-01-13T18:47:20.174Z,6.20
2023-01-13T18:52:14.423Z,5.80
2023-01-13T18:57:08.753Z,5.80
2023-01-13T18:59:35.723Z,5.90
2023-01-13T19:02:09.435Z,5.70
2023-01-13T19:07:04.591Z,6.50
2023-01-13T19:09:33.045Z,5.60
2023-01-13T19:12:01.137Z,5.80
2023-01-13T19:14:34.434Z,5.40
2023-01-13T19:17:22.733Z,5.50
2023-01-13T19:19:52.811Z,5.60
2023-01-13T19:22:29.759Z,5.60
2023-01-13T19:25:01.268Z,5.70
2023-01-13T19:27:28.954Z,5.40
2023-01-13T19:30:00.789Z,5.50
2023-01-13T19:32:30.719Z,5.60
2023-01-13T19:37:31.466Z,5.50
2023-01-13T19:39:59.503Z,5.90
2023-01-13T19:43:04.819Z,5.60
2023-01-13T19:45:35.023Z,5.60
2023-01-13T19:48:04.518Z,5.70
2023-01-13T19:50:34.956Z,6.70
2023-01-13T19:53:01.834Z,5.40
2023-01-13T19:55:30.337Z,5.70
2023-01-13T20:02:53.189Z,5.60
2023-01-13T20:05:22.623Z,6.40
2023-01-13T20:07:51.123Z,6.20
2023-01-13T20:10:20.429Z,5.70
2023-01-13T20:15:14.708Z,5.60
2023-01-13T20:17:41.817Z,6.20
2023-01-13T20:20:10.424Z,5.70
2023-01-13T20:22:38.714Z,5.80
2023-01-13T20:25:06.253Z,6.80
2023-01-13T20:27:33.183Z,5.40
2023-01-13T20:30:00.060Z,6.90
2023-01-13T20:32:26.883Z,5.80
2023-01-13T20:42:31.939Z,5.70
2023-01-13T20:45:00.005Z,5.70
2023-01-13T20:47:28.129Z,5.80
2023-01-13T20:49:54.984Z,6.00
2023-01-13T20:54:49.304Z,5.80
2023-01-13T20:57:17.991Z,5.80
2023-01-13T20:59:45.798Z,5.80
2023-01-13T21:02:15.456Z,6.10
2023-01-13T21:09:37.963Z,6.00
2023-01-13T21:12:24.254Z,6.10
2023-01-13T21:15:10.065Z,5.90
2023-01-13T21:17:55.595Z,6.30
2023-01-13T21:22:49.871Z,6.20
2023-01-13T21:25:17.567Z,6.40
2023-01-13T21:27:44.543Z,5.90
2023-01-13T21:30:17.843Z,6.00
2023-01-13T21:32:45.448Z,5.90
2023-01-13T21:35:13.668Z,6.10
2023-01-13T21:37:41.903Z,6.40
2023-01-13T21:40:12.931Z,6.20
2023-01-13T21:42:58.367Z,6.10
2023-01-13T21:45:44.153Z,6.00
2023-01-13T21:48:11.021Z,5.50
2023-01-13T21:50:38.486Z,5.40
2023-01-13T21:53:07.345Z,5.70
2023-01-13T21:55:35.729Z,5.70
2023-01-13T21:58:14.244Z,5.60
2023-01-13T22:00:45.293Z,5.60
2023-01-13T22:03:13.956Z,5.50
2023-01-13T22:05:41.297Z,5.50
2023-01-13T22:08:08.571Z,5.30
2023-01-13T22:10:35.540Z,5.70
2023-01-13T22:13:22.928Z,5.30
2023-01-13T22:15:49.945Z,6.00
2023-01-13T22:18:18.260Z,5.40
2023-01-13T22:20:46.026Z,5.50
2023-01-13T22:25:40.741Z,5.40
2023-01-13T22:28:09.255Z,5.50
2023-01-13T22:30:36.302Z,5.60
2023-01-13T22:33:03.418Z,5.20
2023-01-13T22:35:30.288Z,5.10
2023-01-13T22:40:24.414Z,5.10
2023-01-13T22:42:51.184Z,5.30
2023-01-13T22:45:18.025Z,5.50
2023-01-13T22:52:39.823Z,5.50
2023-01-13T22:55:07.280Z,5.50
2023-01-13T23:00:15.035Z,5.40
2023-01-13T23:02:42.054Z,5.50
2023-01-13T23:05:09.266Z,5.00
2023-01-13T23:07:36.250Z,5.60
2023-01-13T23:10:06.008Z,5.40
2023-01-13T23:12:33.891Z,5.40
2023-01-13T23:15:00.705Z,5.20
2023-01-13T23:17:27.557Z,5.40
2023-01-13T23:19:54.358Z,5.50
2023-01-13T23:22:21.315Z,5.50
2023-01-13T23:24:48.436Z,5.60
2023-01-13T23:27:15.253Z,5.60
2023-01-13T23:32:09.378Z,5.60
2023-01-13T23:34:36.190Z,5.70
2023-01-13T23:37:03.180Z,5.60
2023-01-13T23:39:29.979Z,5.40
2023-01-13T23:41:56.836Z,5.70
2023-01-13T23:44:23.777Z,5.70
2023-01-13T23:46:50.658Z,5.40
2023-01-13T23:49:17.651Z,5.90
2023-01-13T23:51:44.391Z,5.40
2023-01-13T23:54:11.244Z,5.90
2023-01-13T23:56:39.611Z,5.70
2023-01-13T23:59:07.066Z,5.80
